sensor_id;sensor_type;location;lat;lon;timestamp;pressure;altitude;pressure_sealevel;temperature;humidity
6198;BME280;3132;42.622;23.328;2022-10-16T00:01:13;93428.03;;;7.70;97.43
6198;BME280;3132;42.622;23.328;2022-10-16T00:03:40;93427.47;;;7.68;98.44
6198;BME280;3132;42.622;23.328;2022-10-16T00:06:06;93430.97;;;7.57;99.12
6198;BME280;3132;42.622;23.328;2022-10-16T00:08:33;93432.59;;;7.63;98.98
6198;BME280;3132;42.622;23.328;2022-10-16T00:11:00;93429.50;;;7.66;98.75
6198;BME280;3132;42.622;23.328;2022-10-16T00:13:26;93433.56;;;7.57;98.51
6198;BME280;3132;42.622;23.328;2022-10-16T00:15:55;93437.97;;;7.57;99.04
6198;BME280;3132;42.622;23.328;2022-10-16T00:18:21;93427.38;;;7.42;99.65
6198;BME280;3132;42.622;23.328;2022-10-16T00:20:46;93436.00;;;7.47;99.20
6198;BME280;3132;42.622;23.328;2022-10-16T00:23:11;93436.56;;;7.49;99.25
6198;BME280;3132;42.622;23.328;2022-10-16T00:25:37;93439.31;;;7.43;99.66
6198;BME280;3132;42.622;23.328;2022-10-16T00:28:02;93441.44;;;7.46;99.31
6198;BME280;3132;42.622;23.328;2022-10-16T00:30:27;93445.78;;;7.40;99.41
6198;BME280;3132;42.622;23.328;2022-10-16T00:32:54;93445.72;;;7.35;99.48
6198;BME280;3132;42.622;23.328;2022-10-16T00:35:19;93453.13;;;7.27;100.00
6198;BME280;3132;42.622;23.328;2022-10-16T00:37:45;93457.13;;;7.34;100.00
6198;BME280;3132;42.622;23.328;2022-10-16T00:40:11;93455.38;;;7.56;98.77
6198;BME280;3132;42.622;23.328;2022-10-16T00:42:36;93452.22;;;7.38;98.87
6198;BME280;3132;42.622;23.328;2022-10-16T00:45:03;93456.75;;;7.26;99.17
6198;BME280;3132;42.622;23.328;2022-10-16T00:47:31;93442.50;;;7.28;99.36
6198;BME280;3132;42.622;23.328;2022-10-16T00:50:07;93448.72;;;7.27;99.16
6198;BME280;3132;42.622;23.328;2022-10-16T00:52:33;93430.31;;;7.12;99.60
6198;BME280;3132;42.622;23.328;2022-10-16T00:55:00;93440.38;;;7.25;99.13
6198;BME280;3132;42.622;23.328;2022-10-16T00:57:26;93447.94;;;7.27;99.21
6198;BME280;3132;42.622;23.328;2022-10-16T00:59:53;93445.41;;;7.15;99.96
6198;BME280;3132;42.622;23.328;2022-10-16T01:02:18;93452.66;;;7.13;100.00
6198;BME280;3132;42.622;23.328;2022-10-16T01:04:47;93449.19;;;7.24;99.22
6198;BME280;3132;42.622;23.328;2022-10-16T01:10:25;93461.94;;;7.09;100.00
6198;BME280;3132;42.622;23.328;2022-10-16T01:17:51;93433.44;;;6.98;100.00
6198;BME280;3132;42.622;23.328;2022-10-16T01:20:29;93442.41;;;7.07;99.87
6198;BME280;3132;42.622;23.328;2022-10-16T01:28:22;93436.91;;;7.20;98.89
6198;BME280;3132;42.622;23.328;2022-10-16T01:30:52;93446.22;;;7.16;98.94
6198;BME280;3132;42.622;23.328;2022-10-16T01:33:24;93429.38;;;7.02;99.49
6198;BME280;3132;42.622;23.328;2022-10-16T01:35:59;93437.88;;;7.14;98.98
6198;BME280;3132;42.622;23.328;2022-10-16T01:38:34;93431.66;;;6.98;99.08
6198;BME280;3132;42.622;23.328;2022-10-16T01:41:06;93437.88;;;6.97;99.42
6198;BME280;3132;42.622;23.328;2022-10-16T01:43:38;93443.84;;;7.14;98.68
6198;BME280;3132;42.622;23.328;2022-10-16T01:46:06;93436.59;;;7.16;98.98
6198;BME280;3132;42.622;23.328;2022-10-16T01:48:34;93416.63;;;7.00;99.00
6198;BME280;3132;42.622;23.328;2022-10-16T01:51:06;93427.56;;;7.02;99.46
6198;BME280;3132;42.622;23.328;2022-10-16T01:53:33;93436.28;;;6.96;100.00
6198;BME280;3132;42.622;23.328;2022-10-16T01:56:00;93430.69;;;7.04;100.00
6198;BME280;3132;42.622;23.328;2022-10-16T01:58:29;93440.06;;;7.05;100.00
6198;BME280;3132;42.622;23.328;2022-10-16T02:00:59;93449.44;;;7.06;99.80
6198;BME280;3132;42.622;23.328;2022-10-16T02:03:27;93439.59;;;7.08;99.82
6198;BME280;3132;42.622;23.328;2022-10-16T02:05:56;93452.56;;;7.08;99.95
6198;BME280;3132;42.622;23.328;2022-10-16T02:08:24;93447.63;;;6.90;100.00
6198;BME280;3132;42.622;23.328;2022-10-16T02:10:51;93451.84;;;6.96;100.00
6198;BME280;3132;42.622;23.328;2022-10-16T02:15:53;93458.47;;;6.87;100.00
6198;BME280;3132;42.622;23.328;2022-10-16T02:18:18;93457.22;;;7.06;100.00
6198;BME280;3132;42.622;23.328;2022-10-16T02:21:13;93453.97;;;6.99;100.00
6198;BME280;3132;42.622;23.328;2022-10-16T02:29:24;93480.97;;;7.15;100.00
6198;BME280;3132;42.622;23.328;2022-10-16T02:31:55;93475.94;;;7.08;100.00
6198;BME280;3132;42.622;23.328;2022-10-16T02:34:24;93478.75;;;7.07;100.00
6198;BME280;3132;42.622;23.328;2022-10-16T02:36:51;93480.81;;;7.21;100.00
6198;BME280;3132;42.622;23.328;2022-10-16T02:39:18;93476.81;;;7.14;100.00
6198;BME280;3132;42.622;23.328;2022-10-16T02:41:45;93479.09;;;7.10;100.00
6198;BME280;3132;42.622;23.328;2022-10-16T02:44:10;93467.34;;;6.91;100.00
6198;BME280;3132;42.622;23.328;2022-10-16T02:46:35;93465.84;;;6.79;100.00
6198;BME280;3132;42.622;23.328;2022-10-16T02:49:01;93468.69;;;6.94;100.00
6198;BME280;3132;42.622;23.328;2022-10-16T02:51:26;93482.38;;;6.89;100.00
6198;BME280;3132;42.622;23.328;2022-10-16T02:53:52;93469.69;;;6.76;100.00
6198;BME280;3132;42.622;23.328;2022-10-16T02:56:17;93477.09;;;6.84;100.00
6198;BME280;3132;42.622;23.328;2022-10-16T02:58:42;93488.03;;;6.86;100.00
6198;BME280;3132;42.622;23.328;2022-10-16T03:01:08;93488.28;;;6.85;100.00
6198;BME280;3132;42.622;23.328;2022-10-16T03:03:33;93486.16;;;6.82;100.00
6198;BME280;3132;42.622;23.328;2022-10-16T03:05:58;93489.78;;;6.97;100.00
6198;BME280;3132;42.622;23.328;2022-10-16T03:08:24;93484.66;;;6.86;100.00
6198;BME280;3132;42.622;23.328;2022-10-16T03:10:50;93482.03;;;6.69;100.00
6198;BME280;3132;42.622;23.328;2022-10-16T03:13:16;93489.53;;;6.54;100.00
6198;BME280;3132;42.622;23.328;2022-10-16T03:15:41;93499.78;;;6.61;100.00
6198;BME280;3132;42.622;23.328;2022-10-16T03:18:07;93482.31;;;6.56;100.00
6198;BME280;3132;42.622;23.328;2022-10-16T03:20:32;93496.94;;;6.62;100.00
6198;BME280;3132;42.622;23.328;2022-10-16T03:22:58;93501.50;;;6.55;100.00
6198;BME280;3132;42.622;23.328;2022-10-16T03:25:23;93502.00;;;6.40;100.00
6198;BME280;3132;42.622;23.328;2022-10-16T03:27:48;93501.44;;;6.38;100.00
6198;BME280;3132;42.622;23.328;2022-10-16T03:30:14;93506.72;;;6.43;100.00
6198;BME280;3132;42.622;23.328;2022-10-16T03:32:40;93501.34;;;6.62;100.00
6198;BME280;3132;42.622;23.328;2022-10-16T03:35:06;93503.88;;;6.57;100.00
6198;BME280;3132;42.622;23.328;2022-10-16T03:37:31;93510.06;;;6.55;100.00
6198;BME280;3132;42.622;23.328;2022-10-16T03:39:56;93508.38;;;6.49;100.00
6198;BME280;3132;42.622;23.328;2022-10-16T03:42:22;93506.03;;;6.48;100.00
6198;BME280;3132;42.622;23.328;2022-10-16T03:44:47;93514.94;;;6.52;100.00
6198;BME280;3132;42.622;23.328;2022-10-16T03:47:13;93509.53;;;6.53;100.00
6198;BME280;3132;42.622;23.328;2022-10-16T03:49:38;93503.66;;;6.46;100.00
6198;BME280;3132;42.622;23.328;2022-10-16T03:52:03;93494.81;;;6.31;100.00
6198;BME280;3132;42.622;23.328;2022-10-16T03:54:29;93507.41;;;6.39;100.00
6198;BME280;3132;42.622;23.328;2022-10-16T03:56:54;93502.00;;;6.40;100.00
6198;BME280;3132;42.622;23.328;2022-10-16T03:59:19;93487.13;;;6.36;100.00
6198;BME280;3132;42.622;23.328;2022-10-16T04:01:45;93497.84;;;6.39;100.00
6198;BME280;3132;42.622;23.328;2022-10-16T04:04:10;93495.97;;;6.23;100.00
6198;BME280;3132;42.622;23.328;2022-10-16T04:06:36;93498.00;;;6.21;100.00
6198;BME280;3132;42.622;23.328;2022-10-16T04:09:01;93493.84;;;6.20;100.00
6198;BME280;3132;42.622;23.328;2022-10-16T04:11:27;93493.94;;;6.25;100.00
6198;BME280;3132;42.622;23.328;2022-10-16T04:13:52;93492.44;;;6.29;100.00
6198;BME280;3132;42.622;23.328;2022-10-16T04:16:17;93488.31;;;6.17;100.00
6198;BME280;3132;42.622;23.328;2022-10-16T04:18:43;93496.16;;;6.33;100.00
6198;BME280;3132;42.622;23.328;2022-10-16T04:21:08;93494.94;;;6.24;100.00
6198;BME280;3132;42.622;23.328;2022-10-16T04:23:33;93506.25;;;6.18;100.00
6198;BME280;3132;42.622;23.328;2022-10-16T04:25:59;93502.66;;;6.19;100.00
6198;BME280;3132;42.622;23.328;2022-10-16T04:28:25;93507.72;;;6.14;100.00
6198;BME280;3132;42.622;23.328;2022-10-16T04:30:51;93496.56;;;6.14;100.00
6198;BME280;3132;42.622;23.328;2022-10-16T04:33:17;93505.72;;;6.05;100.00
6198;BME280;3132;42.622;23.328;2022-10-16T04:35:42;93520.34;;;6.11;100.00
6198;BME280;3132;42.622;23.328;2022-10-16T04:38:08;93507.38;;;6.11;100.00
6198;BME280;3132;42.622;23.328;2022-10-16T04:40:33;93498.72;;;6.05;100.00
6198;BME280;3132;42.622;23.328;2022-10-16T04:43:02;93515.59;;;6.19;100.00
6198;BME280;3132;42.622;23.328;2022-10-16T04:45:27;93519.31;;;6.12;100.00
6198;BME280;3132;42.622;23.328;2022-10-16T04:47:56;93509.09;;;6.05;100.00
6198;BME280;3132;42.622;23.328;2022-10-16T04:50:22;93528.34;;;6.09;100.00
6198;BME280;3132;42.622;23.328;2022-10-16T04:52:47;93523.22;;;6.26;100.00
6198;BME280;3132;42.622;23.328;2022-10-16T04:55:12;93526.38;;;6.28;100.00
6198;BME280;3132;42.622;23.328;2022-10-16T04:57:38;93529.66;;;6.35;100.00
6198;BME280;3132;42.622;23.328;2022-10-16T05:00:04;93527.25;;;6.33;100.00
6198;BME280;3132;42.622;23.328;2022-10-16T05:02:29;93539.34;;;6.39;100.00
6198;BME280;3132;42.622;23.328;2022-10-16T05:04:54;93541.00;;;6.45;100.00
6198;BME280;3132;42.622;23.328;2022-10-16T05:07:20;93542.34;;;6.48;100.00
6198;BME280;3132;42.622;23.328;2022-10-16T05:09:45;93546.38;;;6.55;100.00
6198;BME280;3132;42.622;23.328;2022-10-16T05:12:10;93545.22;;;6.35;100.00
6198;BME280;3132;42.622;23.328;2022-10-16T05:14:36;93551.03;;;6.42;100.00
6198;BME280;3132;42.622;23.328;2022-10-16T05:17:01;93541.66;;;6.52;100.00
6198;BME280;3132;42.622;23.328;2022-10-16T05:19:26;93552.34;;;6.56;100.00
6198;BME280;3132;42.622;23.328;2022-10-16T05:21:52;93557.41;;;6.63;100.00
6198;BME280;3132;42.622;23.328;2022-10-16T05:24:17;93542.91;;;6.50;100.00
6198;BME280;3132;42.622;23.328;2022-10-16T05:26:42;93547.81;;;6.63;100.00
6198;BME280;3132;42.622;23.328;2022-10-16T05:29:08;93548.97;;;6.84;100.00
6198;BME280;3132;42.622;23.328;2022-10-16T05:31:34;93535.59;;;6.75;100.00
6198;BME280;3132;42.622;23.328;2022-10-16T05:34:00;93549.41;;;6.92;100.00
6198;BME280;3132;42.622;23.328;2022-10-16T05:36:25;93552.53;;;6.94;100.00
6198;BME280;3132;42.622;23.328;2022-10-16T05:38:51;93552.03;;;7.09;100.00
6198;BME280;3132;42.622;23.328;2022-10-16T05:41:16;93533.50;;;7.05;100.00
6198;BME280;3132;42.622;23.328;2022-10-16T05:43:46;93541.09;;;7.23;100.00
6198;BME280;3132;42.622;23.328;2022-10-16T05:46:12;93541.09;;;7.23;100.00
6198;BME280;3132;42.622;23.328;2022-10-16T05:48:37;93558.72;;;7.21;100.00
6198;BME280;3132;42.622;23.328;2022-10-16T05:51:05;93568.81;;;7.34;100.00
6198;BME280;3132;42.622;23.328;2022-10-16T05:53:34;93566.69;;;7.31;100.00
6198;BME280;3132;42.622;23.328;2022-10-16T05:56:00;93565.09;;;7.30;100.00
6198;BME280;3132;42.622;23.328;2022-10-16T05:58:29;93567.88;;;7.57;100.00
6198;BME280;3132;42.622;23.328;2022-10-16T06:01:00;93575.81;;;7.83;100.00
6198;BME280;3132;42.622;23.328;2022-10-16T06:03:25;93568.66;;;7.74;100.00
6198;BME280;3132;42.622;23.328;2022-10-16T06:05:51;93547.25;;;7.50;100.00
6198;BME280;3132;42.622;23.328;2022-10-16T06:08:17;93586.78;;;7.85;100.00
6198;BME280;3132;42.622;23.328;2022-10-16T06:10:44;93598.91;;;7.96;100.00
6198;BME280;3132;42.622;23.328;2022-10-16T06:13:11;93597.00;;;8.08;100.00
6198;BME280;3132;42.622;23.328;2022-10-16T06:15:36;93600.44;;;8.14;100.00
6198;BME280;3132;42.622;23.328;2022-10-16T06:18:04;93601.88;;;8.22;100.00
6198;BME280;3132;42.622;23.328;2022-10-16T06:20:29;93602.78;;;8.15;100.00
6198;BME280;3132;42.622;23.328;2022-10-16T06:22:54;93570.22;;;7.91;100.00
6198;BME280;3132;42.622;23.328;2022-10-16T06:25:20;93611.81;;;8.25;100.00
6198;BME280;3132;42.622;23.328;2022-10-16T06:27:45;93601.34;;;8.03;100.00
6198;BME280;3132;42.622;23.328;2022-10-16T06:30:10;93602.50;;;8.29;100.00
6198;BME280;3132;42.622;23.328;2022-10-16T06:32:36;93607.84;;;8.39;99.75
6198;BME280;3132;42.622;23.328;2022-10-16T06:35:01;93608.34;;;8.36;100.00
6198;BME280;3132;42.622;23.328;2022-10-16T06:37:27;93623.25;;;8.62;99.77
6198;BME280;3132;42.622;23.328;2022-10-16T06:39:52;93605.09;;;8.67;98.90
6198;BME280;3132;42.622;23.328;2022-10-16T06:42:18;93615.69;;;8.82;97.16
6198;BME280;3132;42.622;23.328;2022-10-16T06:44:44;93623.28;;;9.10;96.59
6198;BME280;3132;42.622;23.328;2022-10-16T06:47:09;93623.75;;;9.28;94.36
6198;BME280;3132;42.622;23.328;2022-10-16T06:49:35;93634.59;;;9.47;93.58
6198;BME280;3132;42.622;23.328;2022-10-16T06:52:00;93637.72;;;9.44;93.76
6198;BME280;3132;42.622;23.328;2022-10-16T06:54:26;93633.16;;;9.08;95.37
6198;BME280;3132;42.622;23.328;2022-10-16T06:56:52;93644.59;;;9.28;94.58
6198;BME280;3132;42.622;23.328;2022-10-16T06:59:22;93650.78;;;9.49;92.74
6198;BME280;3132;42.622;23.328;2022-10-16T07:01:47;93655.09;;;9.65;92.07
6198;BME280;3132;42.622;23.328;2022-10-16T07:04:13;93644.78;;;9.48;92.01
6198;BME280;3132;42.622;23.328;2022-10-16T07:06:39;93659.34;;;9.71;90.78
6198;BME280;3132;42.622;23.328;2022-10-16T07:09:07;93654.25;;;9.86;89.66
6198;BME280;3132;42.622;23.328;2022-10-16T07:11:34;93658.13;;;10.10;87.19
6198;BME280;3132;42.622;23.328;2022-10-16T07:14:01;93649.34;;;10.21;84.83
6198;BME280;3132;42.622;23.328;2022-10-16T07:16:28;93663.09;;;10.12;87.14
6198;BME280;3132;42.622;23.328;2022-10-16T07:18:58;93666.38;;;10.29;83.66
6198;BME280;3132;42.622;23.328;2022-10-16T07:21:26;93664.03;;;10.32;83.67
6198;BME280;3132;42.622;23.328;2022-10-16T07:23:55;93672.97;;;10.36;83.67
6198;BME280;3132;42.622;23.328;2022-10-16T07:26:22;93668.88;;;10.50;81.03
6198;BME280;3132;42.622;23.328;2022-10-16T07:28:48;93659.22;;;10.56;81.25
6198;BME280;3132;42.622;23.328;2022-10-16T07:31:15;93680.25;;;10.76;83.03
6198;BME280;3132;42.622;23.328;2022-10-16T07:33:42;93677.66;;;10.39;84.95
6198;BME280;3132;42.622;23.328;2022-10-16T07:36:09;93679.94;;;10.67;85.89
6198;BME280;3132;42.622;23.328;2022-10-16T07:38:35;93668.03;;;10.91;81.77
6198;BME280;3132;42.622;23.328;2022-10-16T07:41:03;93676.88;;;10.75;83.44
6198;BME280;3132;42.622;23.328;2022-10-16T07:43:29;93682.78;;;11.12;80.27
6198;BME280;3132;42.622;23.328;2022-10-16T07:45:55;93678.06;;;11.09;80.14
6198;BME280;3132;42.622;23.328;2022-10-16T07:48:22;93681.19;;;11.11;79.81
6198;BME280;3132;42.622;23.328;2022-10-16T07:50:48;93684.41;;;11.23;79.33
6198;BME280;3132;42.622;23.328;2022-10-16T07:53:14;93687.53;;;11.20;80.46
6198;BME280;3132;42.622;23.328;2022-10-16T07:55:39;93687.09;;;11.44;79.04
6198;BME280;3132;42.622;23.328;2022-10-16T07:58:05;93685.00;;;11.41;78.60
6198;BME280;3132;42.622;23.328;2022-10-16T08:00:31;93690.44;;;11.34;77.89
6198;BME280;3132;42.622;23.328;2022-10-16T08:02:58;93687.34;;;11.47;77.24
6198;BME280;3132;42.622;23.328;2022-10-16T08:05:27;93700.00;;;11.65;74.90
6198;BME280;3132;42.622;23.328;2022-10-16T08:07:53;93688.66;;;11.50;76.23
6198;BME280;3132;42.622;23.328;2022-10-16T08:10:21;93700.78;;;11.71;76.12
6198;BME280;3132;42.622;23.328;2022-10-16T08:12:47;93692.47;;;11.89;75.12
6198;BME280;3132;42.622;23.328;2022-10-16T08:15:12;93694.31;;;12.08;73.45
6198;BME280;3132;42.622;23.328;2022-10-16T08:17:37;93691.69;;;12.13;73.07
6198;BME280;3132;42.622;23.328;2022-10-16T08:20:04;93692.47;;;12.19;73.94
6198;BME280;3132;42.622;23.328;2022-10-16T08:22:29;93693.53;;;12.18;73.05
6198;BME280;3132;42.622;23.328;2022-10-16T08:24:55;93683.56;;;12.10;74.39
6198;BME280;3132;42.622;23.328;2022-10-16T08:27:20;93697.69;;;12.19;72.28
6198;BME280;3132;42.622;23.328;2022-10-16T08:29:45;93693.00;;;12.26;72.50
6198;BME280;3132;42.622;23.328;2022-10-16T08:32:11;93694.03;;;12.30;72.73
6198;BME280;3132;42.622;23.328;2022-10-16T08:34:37;93691.44;;;12.35;72.38
6198;BME280;3132;42.622;23.328;2022-10-16T08:37:02;93691.41;;;12.55;72.89
6198;BME280;3132;42.622;23.328;2022-10-16T08:39:28;93686.69;;;12.52;71.95
6198;BME280;3132;42.622;23.328;2022-10-16T08:47:39;93706.56;;;13.08;68.37
6198;BME280;3132;42.622;23.328;2022-10-16T08:50:10;93695.03;;;12.89;69.71
6198;BME280;3132;42.622;23.328;2022-10-16T08:52:40;93702.38;;;13.02;63.63
6198;BME280;3132;42.622;23.328;2022-10-16T08:55:37;93707.09;;;13.10;60.99
6198;BME280;3132;42.622;23.328;2022-10-16T08:58:00;93707.09;;;13.00;62.83
6198;BME280;3132;42.622;23.328;2022-10-16T09:00:26;93715.47;;;13.07;62.46
6198;BME280;3132;42.622;23.328;2022-10-16T09:03:05;93712.81;;;13.12;62.14
6198;BME280;3132;42.622;23.328;2022-10-16T09:08:54;93716.94;;;13.38;61.25
6198;BME280;3132;42.622;23.328;2022-10-16T09:25:30;93705.91;;;13.41;59.11
6198;BME280;3132;42.622;23.328;2022-10-16T09:27:56;93714.78;;;13.55;59.20
6198;BME280;3132;42.622;23.328;2022-10-16T09:30:22;93717.31;;;13.75;58.44
6198;BME280;3132;42.622;23.328;2022-10-16T09:32:50;93711.50;;;13.83;57.06
6198;BME280;3132;42.622;23.328;2022-10-16T09:35:19;93706.28;;;13.78;56.01
6198;BME280;3132;42.622;23.328;2022-10-16T09:37:48;93722.53;;;13.80;56.47
6198;BME280;3132;42.622;23.328;2022-10-16T09:42:53;93710.97;;;13.81;60.34
6198;BME280;3132;42.622;23.328;2022-10-16T09:45:23;93705.59;;;14.01;58.21
6198;BME280;3132;42.622;23.328;2022-10-16T09:47:49;93707.13;;;14.07;57.33
6198;BME280;3132;42.622;23.328;2022-10-16T09:50:26;93699.88;;;13.94;57.94
6198;BME280;3132;42.622;23.328;2022-10-16T09:53:12;93701.88;;;14.07;57.60
6198;BME280;3132;42.622;23.328;2022-10-16T09:55:51;93695.94;;;14.35;55.28
6198;BME280;3132;42.622;23.328;2022-10-16T09:58:16;93700.50;;;14.25;56.18
6198;BME280;3132;42.622;23.328;2022-10-16T10:00:49;93698.09;;;13.90;59.91
6198;BME280;3132;42.622;23.328;2022-10-16T10:03:34;93704.88;;;14.34;55.83
6198;BME280;3132;42.622;23.328;2022-10-16T10:06:14;93687.53;;;14.33;56.12
6198;BME280;3132;42.622;23.328;2022-10-16T10:09:37;93693.88;;;13.84;56.58
6198;BME280;3132;42.622;23.328;2022-10-16T10:16:44;93692.66;;;14.54;54.42
6198;BME280;3132;42.622;23.328;2022-10-16T10:19:14;93690.47;;;14.61;55.68
6198;BME280;3132;42.622;23.328;2022-10-16T10:21:40;93690.03;;;14.54;54.77
6198;BME280;3132;42.622;23.328;2022-10-16T10:24:13;93689.97;;;14.59;54.65
6198;BME280;3132;42.622;23.328;2022-10-16T10:26:44;93693.25;;;14.74;53.80
6198;BME280;3132;42.622;23.328;2022-10-16T10:29:32;93689.97;;;14.25;54.90
6198;BME280;3132;42.622;23.328;2022-10-16T10:32:12;93679.84;;;14.08;54.52
6198;BME280;3132;42.622;23.328;2022-10-16T10:34:53;93685.25;;;14.27;53.10
6198;BME280;3132;42.622;23.328;2022-10-16T10:53:33;93678.38;;;14.88;51.09
6198;BME280;3132;42.622;23.328;2022-10-16T11:04:29;93659.97;;;15.40;50.97
6198;BME280;3132;42.622;23.328;2022-10-16T11:07:01;93658.72;;;15.33;52.63
6198;BME280;3132;42.622;23.328;2022-10-16T11:12:01;93653.44;;;15.33;48.40
6198;BME280;3132;42.622;23.328;2022-10-16T11:14:35;93657.69;;;15.29;48.60
6198;BME280;3132;42.622;23.328;2022-10-16T11:17:27;93635.66;;;15.25;47.86
6198;BME280;3132;42.622;23.328;2022-10-16T11:20:14;93656.53;;;15.40;47.67
6198;BME280;3132;42.622;23.328;2022-10-16T11:22:46;93651.28;;;15.35;48.46
6198;BME280;3132;42.622;23.328;2022-10-16T11:25:31;93654.28;;;15.28;48.03
6198;BME280;3132;42.622;23.328;2022-10-16T11:28:20;93647.06;;;15.15;50.61
6198;BME280;3132;42.622;23.328;2022-10-16T11:30:57;93645.56;;;15.56;47.04
6198;BME280;3132;42.622;23.328;2022-10-16T11:33:31;93649.59;;;15.67;46.54
6198;BME280;3132;42.622;23.328;2022-10-16T11:36:16;93649.25;;;15.74;45.15
6198;BME280;3132;42.622;23.328;2022-10-16T11:38:58;93637.72;;;15.70;44.84
6198;BME280;3132;42.622;23.328;2022-10-16T11:41:28;93650.25;;;15.78;43.80
6198;BME280;3132;42.622;23.328;2022-10-16T11:44:09;93648.25;;;15.70;45.35
6198;BME280;3132;42.622;23.328;2022-10-16T11:46:40;93645.75;;;15.60;47.85
6198;BME280;3132;42.622;23.328;2022-10-16T11:49:15;93645.06;;;15.73;46.39
6198;BME280;3132;42.622;23.328;2022-10-16T11:52:35;93644.75;;;15.93;46.07
6198;BME280;3132;42.622;23.328;2022-10-16T11:57:13;93654.59;;;15.87;44.15
6198;BME280;3132;42.622;23.328;2022-10-16T12:02:44;93645.81;;;15.55;47.42
6198;BME280;3132;42.622;23.328;2022-10-16T12:08:13;93641.06;;;15.94;42.74
6198;BME280;3132;42.622;23.328;2022-10-16T12:10:41;93646.75;;;16.20;41.39
6198;BME280;3132;42.622;23.328;2022-10-16T12:13:37;93633.53;;;15.87;42.13
6198;BME280;3132;42.622;23.328;2022-10-16T12:18:39;93646.81;;;15.96;42.00
6198;BME280;3132;42.622;23.328;2022-10-16T12:21:05;93656.66;;;16.09;40.52
6198;BME280;3132;42.622;23.328;2022-10-16T12:23:55;93642.19;;;16.06;40.19
6198;BME280;3132;42.622;23.328;2022-10-16T12:26:27;93638.41;;;15.94;41.73
6198;BME280;3132;42.622;23.328;2022-10-16T12:28:53;93648.88;;;15.80;43.07
6198;BME280;3132;42.622;23.328;2022-10-16T12:31:19;93638.13;;;15.77;42.86
6198;BME280;3132;42.622;23.328;2022-10-16T12:34:20;93650.31;;;15.73;42.10
6198;BME280;3132;42.622;23.328;2022-10-16T12:36:47;93648.31;;;16.02;41.62
6198;BME280;3132;42.622;23.328;2022-10-16T12:39:21;93645.47;;;16.17;42.00
6198;BME280;3132;42.622;23.328;2022-10-16T12:41:48;93640.03;;;16.27;42.29
6198;BME280;3132;42.622;23.328;2022-10-16T12:44:23;93651.31;;;15.95;42.26
6198;BME280;3132;42.622;23.328;2022-10-16T12:46:49;93648.59;;;16.00;42.58
6198;BME280;3132;42.622;23.328;2022-10-16T12:49:29;93644.06;;;16.06;42.34
6198;BME280;3132;42.622;23.328;2022-10-16T12:51:55;93646.53;;;16.16;41.94
6198;BME280;3132;42.622;23.328;2022-10-16T12:54:30;93652.59;;;15.61;44.16
6198;BME280;3132;42.622;23.328;2022-10-16T13:02:21;93657.06;;;16.16;40.99
6198;BME280;3132;42.622;23.328;2022-10-16T13:07:48;93658.72;;;16.12;41.45
6198;BME280;3132;42.622;23.328;2022-10-16T13:24:17;93653.78;;;16.24;41.72
6198;BME280;3132;42.622;23.328;2022-10-16T13:29:53;93665.56;;;15.94;44.75
6198;BME280;3132;42.622;23.328;2022-10-16T13:32:21;93663.06;;;16.03;43.19
6198;BME280;3132;42.622;23.328;2022-10-16T13:34:48;93660.13;;;16.23;42.89
6198;BME280;3132;42.622;23.328;2022-10-16T13:37:22;93664.69;;;16.18;43.09
6198;BME280;3132;42.622;23.328;2022-10-16T13:39:48;93673.66;;;15.98;43.97
6198;BME280;3132;42.622;23.328;2022-10-16T13:44:53;93666.19;;;16.05;43.17
6198;BME280;3132;42.622;23.328;2022-10-16T13:47:21;93672.19;;;16.11;43.06
6198;BME280;3132;42.622;23.328;2022-10-16T13:50:04;93665.25;;;16.15;41.88
6198;BME280;3132;42.622;23.328;2022-10-16T13:52:30;93670.66;;;16.23;43.71
6198;BME280;3132;42.622;23.328;2022-10-16T13:54:56;93663.06;;;16.03;44.63
6198;BME280;3132;42.622;23.328;2022-10-16T13:57:23;93670.97;;;16.03;44.89
6198;BME280;3132;42.622;23.328;2022-10-16T13:59:49;93669.50;;;16.29;43.80
6198;BME280;3132;42.622;23.328;2022-10-16T14:02:31;93675.28;;;15.75;47.49
6198;BME280;3132;42.622;23.328;2022-10-16T14:05:01;93673.00;;;15.69;46.91
6198;BME280;3132;42.622;23.328;2022-10-16T14:07:32;93676.91;;;15.53;49.58
6198;BME280;3132;42.622;23.328;2022-10-16T14:10:05;93671.13;;;15.51;50.23
6198;BME280;3132;42.622;23.328;2022-10-16T14:12:31;93680.09;;;15.50;49.00
6198;BME280;3132;42.622;23.328;2022-10-16T14:14:58;93675.16;;;15.20;50.75
6198;BME280;3132;42.622;23.328;2022-10-16T14:17:27;93681.34;;;15.05;50.66
6198;BME280;3132;42.622;23.328;2022-10-16T14:19:57;93682.38;;;14.86;52.80
6198;BME280;3132;42.622;23.328;2022-10-16T14:24:58;93685.38;;;14.45;56.26
6198;BME280;3132;42.622;23.328;2022-10-16T14:27:35;93678.69;;;14.24;55.87
6198;BME280;3132;42.622;23.328;2022-10-16T14:30:20;93686.16;;;14.02;56.80
6198;BME280;3132;42.622;23.328;2022-10-16T14:32:58;93684.59;;;14.01;57.10
6198;BME280;3132;42.622;23.328;2022-10-16T14:35:25;93683.88;;;13.91;58.54
6198;BME280;3132;42.622;23.328;2022-10-16T14:37:52;93688.81;;;13.54;61.05
6198;BME280;3132;42.622;23.328;2022-10-16T14:40:18;93681.97;;;13.58;59.52
6198;BME280;3132;42.622;23.328;2022-10-16T14:42:44;93690.72;;;13.38;62.81
6198;BME280;3132;42.622;23.328;2022-10-16T14:45:10;93692.28;;;13.34;62.53
6198;BME280;3132;42.622;23.328;2022-10-16T14:47:44;93701.75;;;13.30;62.94
6198;BME280;3132;42.622;23.328;2022-10-16T14:50:13;93690.28;;;13.11;63.65
6198;BME280;3132;42.622;23.328;2022-10-16T14:52:38;93651.81;;;12.81;63.28
6198;BME280;3132;42.622;23.328;2022-10-16T14:55:04;93705.47;;;13.14;63.72
6198;BME280;3132;42.622;23.328;2022-10-16T14:57:32;93703.41;;;12.96;64.48
6198;BME280;3132;42.622;23.328;2022-10-16T14:59:58;93708.16;;;12.74;65.42
6198;BME280;3132;42.622;23.328;2022-10-16T15:02:31;93696.63;;;12.75;65.34
6198;BME280;3132;42.622;23.328;2022-10-16T15:05:07;93662.63;;;12.45;65.03
6198;BME280;3132;42.622;23.328;2022-10-16T15:07:35;93690.63;;;12.59;65.16
6198;BME280;3132;42.622;23.328;2022-10-16T15:10:00;93697.44;;;12.60;64.69
6198;BME280;3132;42.622;23.328;2022-10-16T15:12:26;93716.31;;;12.57;65.97
6198;BME280;3132;42.622;23.328;2022-10-16T15:14:51;93687.75;;;12.21;65.67
6198;BME280;3132;42.622;23.328;2022-10-16T15:17:16;93671.00;;;12.07;65.63
6198;BME280;3132;42.622;23.328;2022-10-16T15:19:42;93719.72;;;12.38;63.94
6198;BME280;3132;42.622;23.328;2022-10-16T15:22:10;93720.75;;;12.32;64.27